• Join FlightAware (Why Join?)
  • Login
  • US Flag 
07:27PM EDT


 

Airport Tracker/Info


-or-


 

Live Flight TrackerFlight Track Log ✈ LIA565 ✈ 15-May-2013 ✈ TDPD / DOM - TBPB / BGI

Flight Track Log - Related Links

Times and Time Zones

All times are in EDT time to prevent confusion due to time zone crossing. See the LIA565 flight status page for this flight to view local times or setup timezone preferences in your user account.

Time Position Orientation Groundspeed Altitude Reporting Facility
EDT Latitude Longitude Course Direction KTS MPH feet Rate Location/Type
04:53PM 14.7450 -60.7081 144° Southeast  Level Estimated
04:54PM 14.6781 -60.6590 145° Southeast  Level Estimated
04:55PM 14.6112 -60.6099 145° Southeast  Level Estimated
04:56PM 14.5443 -60.5609 145° Southeast  Level Estimated
04:57PM 14.4774 -60.5118 145° Southeast  Level Estimated
04:58PM 14.4104 -60.4628 145° Southeast  Level Estimated
04:59PM 14.3435 -60.4139 145° Southeast  Level Estimated
05:00PM 14.2765 -60.3649 145° Southeast  Level Estimated
05:01PM 14.2095 -60.3160 145° Southeast  Level Estimated
05:02PM 14.1426 -60.2671 145° Southeast  Level Estimated
05:03PM 14.0756 -60.2183 145° Southeast  Level Estimated
05:04PM 14.0086 -60.1694 145° Southeast  Level Estimated
05:05PM 13.9416 -60.1206 145° Southeast  Level Estimated
05:06PM 13.8745 -60.0719 145° Southeast  Level Estimated
05:07PM 13.8075 -60.0231 145° Southeast  Level Estimated
05:08PM 13.7405 -59.9744 145° Southeast  Level Estimated
05:09PM 13.6734 -59.9257 145° Southeast  Level Estimated
05:10PM 13.6063 -59.8771 145° Southeast  Level Estimated
05:11PM 13.5393 -59.8284 145° Southeast  Level Estimated
05:12PM 13.4722 -59.7798 145° Southeast  Level Estimated
05:13PM 13.4051 -59.7313 145° Southeast  Level Estimated
05:14PM 13.3380 -59.6827 145° Southeast  Level Estimated
05:15PM 13.2709 -59.6342 145° Southeast  Level Estimated
05:16PM 13.2038 -59.5857 145° Southeast  Level Estimated
05:17PM 13.1367 -59.5372 145° Southeast  Level Estimated
05:18PM 13.0746 -59.4925 145° Southeast  Level Estimated
05:19PM 13.0746 -59.4925 52° Northeast  Level Estimated
05:20PM 13.0746 -59.4925 52° Northeast  Level Estimated
05:21PM 13.0746 -59.4925 52° Northeast  Level Estimated
05:22PM 13.0746 -59.4925 52° Northeast  Level Estimated
05:23PM 13.0746 -59.4925 52° Northeast  Level Estimated
05:24PM 13.0746 -59.4925 52° Northeast  Level Estimated
05:25PM 13.0746 -59.4925 52° Northeast  Level Estimated
05:26PM 13.0746 -59.4925 52° Northeast  Level Estimated
05:27PM 13.0746 -59.4925 52° Northeast  Level Estimated
05:28PM 13.0746 -59.4925 52° Northeast  Level Estimated
05:29PM 13.0746 -59.4925 52° Northeast  Level Estimated
05:30PM 13.0746 -59.4925 52° Northeast  Level Estimated
05:31PM 13.0746 -59.4925 52° Northeast  Level Estimated
05:32PM 13.0746 -59.4925 52° Northeast  Level Estimated
05:33PM 13.0746 -59.4925 52° Northeast  Level Estimated
05:34PM 13.0746 -59.4925 52° Northeast  Level Estimated